ANE2377 LEVC-LEBL
Flight info
| Callsign | ANE2377 |
|---|---|
| Flight time | 0h 37m |
| Altitude | 26000 |
| Route | SOPET N608 MATEX |
| Aircraft | CRJX/M-SDFGIRWY/S |
Departure
| Time | 2026-05-08 12:09 |
|---|---|
| Airport | Valencia Airport (LEVC) |
Arrival
| Time | 2026-05-08 12:47 |
|---|---|
| Airport | Josep Tarradellas Barcelona-El Prat Airport (LEBL) |
| Time | Latitude | Longitude | Altitude | Speed | Heading |
|---|---|---|---|---|---|
| 2026-05-08 11:47 | 39.49381 | -0.47908 | 241 ft | 0 kts | 26° |
| 2026-05-08 12:00 | 39.49381 | -0.47907 | 241 ft | 0 kts | 26° |
| 2026-05-08 12:00 | 39.49380 | -0.47908 | 241 ft | 1 kts | 26° |
| 2026-05-08 12:01 | 39.49371 | -0.47914 | 241 ft | 2 kts | 25° |
| 2026-05-08 12:01 | 39.49357 | -0.47918 | 241 ft | 2 kts | 357° |
| 2026-05-08 12:01 | 39.49343 | -0.47914 | 241 ft | 2 kts | 332° |
| 2026-05-08 12:01 | 39.49331 | -0.47902 | 241 ft | 2 kts | 306° |
| 2026-05-08 12:02 | 39.49327 | -0.47892 | 241 ft | 0 kts | 296° |
| 2026-05-08 12:03 | 39.49334 | -0.47913 | 241 ft | 6 kts | 296° |
| 2026-05-08 12:03 | 39.49332 | -0.47968 | 241 ft | 8 kts | 226° |
| 2026-05-08 12:03 | 39.49277 | -0.48010 | 241 ft | 8 kts | 207° |
| 2026-05-08 12:04 | 39.49206 | -0.48055 | 241 ft | 10 kts | 207° |
| 2026-05-08 12:04 | 39.49163 | -0.48119 | 241 ft | 10 kts | 234° |
| 2026-05-08 12:04 | 39.49135 | -0.48186 | 241 ft | 9 kts | 276° |
| 2026-05-08 12:04 | 39.49165 | -0.48276 | 241 ft | 11 kts | 296° |
| 2026-05-08 12:05 | 39.49205 | -0.48381 | 241 ft | 14 kts | 296° |
| 2026-05-08 12:05 | 39.49251 | -0.48501 | 241 ft | 16 kts | 296° |
| 2026-05-08 12:05 | 39.49304 | -0.48640 | 241 ft | 18 kts | 296° |
| 2026-05-08 12:05 | 39.49357 | -0.48780 | 241 ft | 13 kts | 296° |
| 2026-05-08 12:06 | 39.49403 | -0.48900 | 241 ft | 15 kts | 296° |
| 2026-05-08 12:06 | 39.49455 | -0.49036 | 241 ft | 17 kts | 296° |
| 2026-05-08 12:06 | 39.49512 | -0.49188 | 241 ft | 19 kts | 296° |
| 2026-05-08 12:06 | 39.49575 | -0.49353 | 241 ft | 21 kts | 296° |
| 2026-05-08 12:07 | 39.49644 | -0.49535 | 241 ft | 23 kts | 296° |
| 2026-05-08 12:07 | 39.49703 | -0.49689 | 241 ft | 15 kts | 296° |
| 2026-05-08 12:07 | 39.49742 | -0.49792 | 241 ft | 12 kts | 296° |
| 2026-05-08 12:07 | 39.49775 | -0.49878 | 241 ft | 7 kts | 296° |
| 2026-05-08 12:08 | 39.49786 | -0.49946 | 241 ft | 8 kts | 248° |
| 2026-05-08 12:08 | 39.49730 | -0.49994 | 241 ft | 10 kts | 207° |
| 2026-05-08 12:08 | 39.49652 | -0.50033 | 241 ft | 14 kts | 176° |
| 2026-05-08 12:08 | 39.49578 | -0.49889 | 241 ft | 47 kts | 117° |
| 2026-05-08 12:09 | 39.49292 | -0.49134 | 241 ft | 134 kts | 116° |
| 2026-05-08 12:09 | 39.48800 | -0.47846 | 511 ft | 173 kts | 117° |
| 2026-05-08 12:09 | 39.48217 | -0.46372 | 1064 ft | 197 kts | 117° |
| 2026-05-08 12:09 | 39.47576 | -0.44780 | 1801 ft | 207 kts | 117° |
| 2026-05-08 12:10 | 39.46778 | -0.43136 | 2464 ft | 226 kts | 137° |
| 2026-05-08 12:10 | 39.45578 | -0.41823 | 3442 ft | 228 kts | 134° |
| 2026-05-08 12:10 | 39.44552 | -0.40307 | 4401 ft | 229 kts | 129° |
| 2026-05-08 12:10 | 39.43890 | -0.38448 | 5179 ft | 239 kts | 97° |
| 2026-05-08 12:11 | 39.44279 | -0.36322 | 5815 ft | 263 kts | 58° |
| 2026-05-08 12:11 | 39.45676 | -0.34805 | 6820 ft | 272 kts | 29° |
| 2026-05-08 12:11 | 39.47380 | -0.33677 | 7722 ft | 283 kts | 28° |
| 2026-05-08 12:11 | 39.49174 | -0.32510 | 8643 ft | 292 kts | 27° |
| 2026-05-08 12:12 | 39.50986 | -0.31345 | 9596 ft | 298 kts | 27° |
| 2026-05-08 12:12 | 39.52850 | -0.30149 | 10513 ft | 305 kts | 27° |
| 2026-05-08 12:12 | 39.54788 | -0.28901 | 11432 ft | 312 kts | 26° |
| 2026-05-08 12:12 | 39.56758 | -0.27641 | 11977 ft | 331 kts | 26° |
| 2026-05-08 12:13 | 39.58851 | -0.26296 | 12546 ft | 341 kts | 25° |
| 2026-05-08 12:13 | 39.60999 | -0.24912 | 13157 ft | 348 kts | 25° |
| 2026-05-08 12:13 | 39.63195 | -0.23499 | 13782 ft | 353 kts | 25° |
| 2026-05-08 12:13 | 39.65388 | -0.22095 | 14409 ft | 358 kts | 25° |
| 2026-05-08 12:14 | 39.67598 | -0.20500 | 14899 ft | 368 kts | 38° |
| 2026-05-08 12:14 | 39.69480 | -0.18200 | 15468 ft | 372 kts | 45° |
| 2026-05-08 12:14 | 39.71311 | -0.15862 | 16100 ft | 376 kts | 45° |
| 2026-05-08 12:14 | 39.73197 | -0.13455 | 16616 ft | 383 kts | 45° |
| 2026-05-08 12:15 | 39.75131 | -0.10995 | 17121 ft | 391 kts | 45° |
| 2026-05-08 12:15 | 39.77066 | -0.08535 | 17708 ft | 395 kts | 46° |
| 2026-05-08 12:15 | 39.79051 | -0.06006 | 18208 ft | 401 kts | 46° |
| 2026-05-08 12:15 | 39.81030 | -0.03470 | 18833 ft | 403 kts | 45° |
| 2026-05-08 12:16 | 39.83145 | -0.01014 | 19374 ft | 407 kts | 32° |
| 2026-05-08 12:16 | 39.85729 | 0.00438 | 19815 ft | 407 kts | 12° |
| 2026-05-08 12:16 | 39.88419 | 0.01421 | 20577 ft | 404 kts | 12° |
| 2026-05-08 12:16 | 39.91160 | 0.02424 | 21152 ft | 407 kts | 12° |
| 2026-05-08 12:17 | 39.93852 | 0.03415 | 21741 ft | 409 kts | 11° |
| 2026-05-08 12:17 | 39.96608 | 0.04433 | 22304 ft | 413 kts | 12° |
| 2026-05-08 12:17 | 39.99379 | 0.05460 | 22863 ft | 416 kts | 11° |
| 2026-05-08 12:17 | 40.02187 | 0.06508 | 23492 ft | 417 kts | 11° |
| 2026-05-08 12:18 | 40.05008 | 0.07553 | 24014 ft | 421 kts | 11° |
| 2026-05-08 12:18 | 40.07846 | 0.08603 | 24499 ft | 426 kts | 12° |
| 2026-05-08 12:18 | 40.10690 | 0.09667 | 25053 ft | 428 kts | 12° |
| 2026-05-08 12:18 | 40.13574 | 0.10739 | 25593 ft | 431 kts | 12° |
| 2026-05-08 12:19 | 40.16457 | 0.11820 | 26012 ft | 437 kts | 12° |
| 2026-05-08 12:19 | 40.19436 | 0.12928 | 26018 ft | 454 kts | 12° |
| 2026-05-08 12:19 | 40.22558 | 0.14093 | 26044 ft | 469 kts | 12° |
| 2026-05-08 12:19 | 40.25771 | 0.15003 | 26025 ft | 481 kts | 10° |
| 2026-05-08 12:20 | 40.28986 | 0.16338 | 26052 ft | 492 kts | 15° |
| 2026-05-08 12:20 | 40.32275 | 0.17664 | 26027 ft | 496 kts | 13° |
| 2026-05-08 12:20 | 40.35577 | 0.18951 | 25971 ft | 497 kts | 13° |
| 2026-05-08 12:20 | 40.38900 | 0.20214 | 25986 ft | 497 kts | 13° |
| 2026-05-08 12:21 | 40.42234 | 0.21475 | 25971 ft | 494 kts | 13° |
| 2026-05-08 12:21 | 40.45504 | 0.22709 | 25970 ft | 483 kts | 13° |
| 2026-05-08 12:21 | 40.48720 | 0.23923 | 25948 ft | 475 kts | 13° |
| 2026-05-08 12:21 | 40.51826 | 0.25213 | 25930 ft | 469 kts | 21° |
| 2026-05-08 12:22 | 40.54529 | 0.27563 | 25860 ft | 463 kts | 44° |
| 2026-05-08 12:22 | 40.56406 | 0.30912 | 25971 ft | 449 kts | 66° |
| 2026-05-08 12:22 | 40.57506 | 0.34679 | 26013 ft | 439 kts | 74° |
| 2026-05-08 12:22 | 40.58461 | 0.38468 | 25958 ft | 436 kts | 75° |
| 2026-05-08 12:23 | 40.59373 | 0.42253 | 25963 ft | 431 kts | 76° |
| 2026-05-08 12:23 | 40.60269 | 0.45996 | 25964 ft | 427 kts | 76° |
| 2026-05-08 12:23 | 40.61147 | 0.49723 | 25947 ft | 423 kts | 76° |
| 2026-05-08 12:23 | 40.62001 | 0.53346 | 25950 ft | 419 kts | 76° |
| 2026-05-08 12:24 | 40.62870 | 0.57040 | 25956 ft | 416 kts | 76° |
| 2026-05-08 12:24 | 40.63710 | 0.60623 | 25948 ft | 416 kts | 76° |
| 2026-05-08 12:24 | 40.64568 | 0.64283 | 25964 ft | 426 kts | 76° |
| 2026-05-08 12:24 | 40.65456 | 0.68087 | 26000 ft | 442 kts | 76° |
| 2026-05-08 12:25 | 40.66375 | 0.72042 | 26013 ft | 458 kts | 76° |
| 2026-05-08 12:25 | 40.67328 | 0.76136 | 26039 ft | 472 kts | 76° |
| 2026-05-08 12:25 | 40.68298 | 0.80301 | 26032 ft | 486 kts | 76° |
| 2026-05-08 12:25 | 40.69306 | 0.84629 | 26002 ft | 494 kts | 76° |
| 2026-05-08 12:26 | 40.70307 | 0.88945 | 25976 ft | 499 kts | 76° |
| 2026-05-08 12:26 | 40.71313 | 0.93299 | 25987 ft | 488 kts | 75° |
| 2026-05-08 12:26 | 40.72286 | 0.97493 | 26019 ft | 471 kts | 76° |
| 2026-05-08 12:26 | 40.73211 | 1.01498 | 25880 ft | 447 kts | 76° |
| 2026-05-08 12:27 | 40.74106 | 1.05388 | 25124 ft | 439 kts | 76° |
| 2026-05-08 12:27 | 40.74983 | 1.09214 | 24208 ft | 435 kts | 76° |
| 2026-05-08 12:27 | 40.75836 | 1.12949 | 23369 ft | 429 kts | 76° |
| 2026-05-08 12:27 | 40.76692 | 1.16684 | 22504 ft | 425 kts | 76° |
| 2026-05-08 12:28 | 40.77536 | 1.20381 | 21768 ft | 416 kts | 76° |
| 2026-05-08 12:28 | 40.78366 | 1.24019 | 20959 ft | 411 kts | 76° |
| 2026-05-08 12:28 | 40.79175 | 1.27564 | 20164 ft | 404 kts | 76° |
| 2026-05-08 12:28 | 40.79973 | 1.31082 | 19347 ft | 399 kts | 76° |
| 2026-05-08 12:29 | 40.80758 | 1.34537 | 18589 ft | 391 kts | 76° |
| 2026-05-08 12:29 | 40.81540 | 1.37985 | 17808 ft | 384 kts | 76° |
| 2026-05-08 12:29 | 40.82296 | 1.41332 | 17022 ft | 378 kts | 76° |
| 2026-05-08 12:29 | 40.83032 | 1.44595 | 16277 ft | 371 kts | 75° |
| 2026-05-08 12:30 | 40.83763 | 1.47839 | 15536 ft | 364 kts | 75° |
| 2026-05-08 12:30 | 40.84475 | 1.50991 | 14779 ft | 357 kts | 75° |
| 2026-05-08 12:30 | 40.85171 | 1.54092 | 14042 ft | 351 kts | 75° |
| 2026-05-08 12:30 | 40.85860 | 1.57155 | 13281 ft | 345 kts | 74° |
| 2026-05-08 12:31 | 40.86518 | 1.60082 | 12924 ft | 326 kts | 74° |
| 2026-05-08 12:31 | 40.87133 | 1.62851 | 12739 ft | 307 kts | 77° |
| 2026-05-08 12:31 | 40.87490 | 1.65615 | 12183 ft | 301 kts | 84° |
| 2026-05-08 12:31 | 40.87774 | 1.68315 | 11600 ft | 298 kts | 84° |
| 2026-05-08 12:32 | 40.88061 | 1.71001 | 11042 ft | 295 kts | 84° |
| 2026-05-08 12:32 | 40.88346 | 1.73669 | 10499 ft | 291 kts | 84° |
| 2026-05-08 12:32 | 40.88625 | 1.76298 | 9951 ft | 287 kts | 84° |
| 2026-05-08 12:32 | 40.89242 | 1.78771 | 9308 ft | 291 kts | 59° |
| 2026-05-08 12:33 | 40.90419 | 1.80934 | 9019 ft | 281 kts | 56° |
| 2026-05-08 12:33 | 40.91563 | 1.82955 | 8683 ft | 273 kts | 55° |
| 2026-05-08 12:33 | 40.92704 | 1.84931 | 8185 ft | 271 kts | 54° |
| 2026-05-08 12:33 | 40.93851 | 1.86902 | 7672 ft | 269 kts | 54° |
| 2026-05-08 12:34 | 40.94975 | 1.88834 | 7201 ft | 266 kts | 54° |
| 2026-05-08 12:34 | 40.96096 | 1.90763 | 6691 ft | 264 kts | 54° |
| 2026-05-08 12:34 | 40.97225 | 1.92700 | 6240 ft | 265 kts | 54° |
| 2026-05-08 12:34 | 40.98337 | 1.94612 | 5940 ft | 261 kts | 54° |
| 2026-05-08 12:35 | 40.99446 | 1.96521 | 5611 ft | 261 kts | 54° |
| 2026-05-08 12:35 | 41.00551 | 1.98423 | 5361 ft | 260 kts | 54° |
| 2026-05-08 12:35 | 41.01643 | 2.00303 | 5123 ft | 258 kts | 54° |
| 2026-05-08 12:35 | 41.02736 | 2.02185 | 4905 ft | 257 kts | 54° |
| 2026-05-08 12:36 | 41.03834 | 2.04078 | 4681 ft | 256 kts | 54° |
| 2026-05-08 12:36 | 41.04911 | 2.05937 | 4446 ft | 255 kts | 54° |
| 2026-05-08 12:36 | 41.06001 | 2.07821 | 4222 ft | 254 kts | 54° |
| 2026-05-08 12:36 | 41.07062 | 2.09654 | 3999 ft | 253 kts | 54° |
| 2026-05-08 12:37 | 41.08138 | 2.11509 | 3917 ft | 249 kts | 54° |
| 2026-05-08 12:37 | 41.09187 | 2.13326 | 3929 ft | 246 kts | 54° |
| 2026-05-08 12:37 | 41.10218 | 2.15112 | 3935 ft | 245 kts | 54° |
| 2026-05-08 12:37 | 41.11443 | 2.16709 | 3928 ft | 246 kts | 41° |
| 2026-05-08 12:38 | 41.12754 | 2.18159 | 3938 ft | 244 kts | 42° |
| 2026-05-08 12:38 | 41.14064 | 2.19604 | 3928 ft | 244 kts | 42° |
| 2026-05-08 12:38 | 41.15364 | 2.21039 | 3937 ft | 244 kts | 42° |
| 2026-05-08 12:38 | 41.16672 | 2.22482 | 3933 ft | 246 kts | 41° |
| 2026-05-08 12:39 | 41.17993 | 2.23951 | 3947 ft | 249 kts | 42° |
| 2026-05-08 12:39 | 41.19334 | 2.25444 | 3947 ft | 252 kts | 42° |
| 2026-05-08 12:39 | 41.20696 | 2.26956 | 3942 ft | 255 kts | 41° |
| 2026-05-08 12:39 | 41.22055 | 2.28472 | 3947 ft | 255 kts | 42° |
| 2026-05-08 12:40 | 41.23397 | 2.29961 | 3935 ft | 248 kts | 41° |
| 2026-05-08 12:40 | 41.24714 | 2.31426 | 3846 ft | 242 kts | 41° |
| 2026-05-08 12:40 | 41.25998 | 2.32848 | 3729 ft | 237 kts | 41° |
| 2026-05-08 12:40 | 41.27292 | 2.34186 | 3522 ft | 238 kts | 30° |
| 2026-05-08 12:41 | 41.28933 | 2.34636 | 3249 ft | 243 kts | 2° |
| 2026-05-08 12:41 | 41.30598 | 2.34677 | 3136 ft | 239 kts | 2° |
| 2026-05-08 12:41 | 41.32273 | 2.34708 | 2956 ft | 238 kts | 1° |
| 2026-05-08 12:41 | 41.33878 | 2.34736 | 2849 ft | 219 kts | 1° |
| 2026-05-08 12:42 | 41.35345 | 2.34720 | 2455 ft | 211 kts | 352° |
| 2026-05-08 12:42 | 41.36568 | 2.33745 | 2137 ft | 207 kts | 303° |
| 2026-05-08 12:42 | 41.36951 | 2.31934 | 2310 ft | 205 kts | 272° |
| 2026-05-08 12:42 | 41.36948 | 2.30104 | 2348 ft | 200 kts | 257° |
| 2026-05-08 12:43 | 41.36530 | 2.28330 | 2265 ft | 196 kts | 248° |
| 2026-05-08 12:43 | 41.36058 | 2.26680 | 2231 ft | 184 kts | 245° |
| 2026-05-08 12:43 | 41.35580 | 2.25138 | 2227 ft | 176 kts | 244° |
| 2026-05-08 12:43 | 41.35097 | 2.23651 | 2139 ft | 179 kts | 243° |
| 2026-05-08 12:44 | 41.34588 | 2.22128 | 1914 ft | 181 kts | 243° |
| 2026-05-08 12:44 | 41.34067 | 2.20587 | 1669 ft | 178 kts | 243° |
| 2026-05-08 12:44 | 41.33573 | 2.19131 | 1452 ft | 165 kts | 243° |
| 2026-05-08 12:44 | 41.33123 | 2.17800 | 1214 ft | 151 kts | 243° |
| 2026-05-08 12:45 | 41.32702 | 2.16573 | 992 ft | 142 kts | 242° |
| 2026-05-08 12:45 | 41.32299 | 2.15396 | 803 ft | 140 kts | 243° |
| 2026-05-08 12:45 | 41.31885 | 2.14204 | 573 ft | 144 kts | 243° |
| 2026-05-08 12:45 | 41.31480 | 2.13004 | 411 ft | 143 kts | 245° |
| 2026-05-08 12:46 | 41.31071 | 2.11801 | 271 ft | 141 kts | 242° |
| 2026-05-08 12:46 | 41.30661 | 2.10619 | 99 ft | 140 kts | 244° |
| 2026-05-08 12:46 | 41.30256 | 2.09447 | 21 ft | 131 kts | 244° |
| 2026-05-08 12:46 | 41.29943 | 2.08539 | 21 ft | 89 kts | 245° |
| 2026-05-08 12:47 | 41.29791 | 2.08096 | 21 ft | 23 kts | 245° |
| 2026-05-08 12:47 | 41.29724 | 2.07973 | 21 ft | 15 kts | 227° |
| 2026-05-08 12:47 | 41.29639 | 2.07870 | 21 ft | 17 kts | 216° |
| 2026-05-08 12:47 | 41.29544 | 2.07845 | 21 ft | 13 kts | 129° |
| 2026-05-08 12:48 | 41.29561 | 2.07968 | 21 ft | 15 kts | 64° |
| 2026-05-08 12:48 | 41.29604 | 2.08102 | 21 ft | 15 kts | 66° |
| 2026-05-08 12:48 | 41.29615 | 2.08223 | 21 ft | 13 kts | 141° |
| 2026-05-08 12:48 | 41.29521 | 2.08284 | 21 ft | 16 kts | 155° |
| 2026-05-08 12:49 | 41.29413 | 2.08350 | 20 ft | 18 kts | 155° |
| 2026-05-08 12:49 | 41.29290 | 2.08425 | 20 ft | 20 kts | 155° |
| 2026-05-08 12:49 | 41.29151 | 2.08424 | 20 ft | 20 kts | 200° |
| 2026-05-08 12:49 | 41.29019 | 2.08363 | 20 ft | 20 kts | 199° |
| 2026-05-08 12:50 | 41.28887 | 2.08303 | 20 ft | 21 kts | 199° |
| 2026-05-08 12:50 | 41.28773 | 2.08230 | 20 ft | 16 kts | 238° |
| 2026-05-08 12:50 | 41.28742 | 2.08107 | 20 ft | 8 kts | 289° |
| 2026-05-08 12:50 | 41.28775 | 2.08078 | 20 ft | 3 kts | 6° |
| 2026-05-08 12:51 | 41.28798 | 2.08110 | 20 ft | 6 kts | 63° |
| 2026-05-08 12:51 | 41.28806 | 2.08135 | 20 ft | 0 kts | 65° |